Time;durP1;ratioP1;P1;durP2;ratioP2;P2;SDS_P1;SDS_P2;PMS_P1;PMS_P2;Temp;Humidity;BMP_temperature;BMP_pressure;BME280_temperature;BME280_humidity;BME280_pressure;Samples;Min_cycle;Max_cycle;Signal;HPM_P1;HPM_P2
2023/01/25 00:00:16;;;;;;;23.50;16.13;;;4.60;99.90;;;;;;5036911;28;20212;-63
2023/01/25 00:02:42;;;;;;;22.27;15.30;;;4.50;99.90;;;;;;5042357;28;20183;-63
2023/01/25 00:05:08;;;;;;;22.10;15.77;;;4.60;99.90;;;;;;5035239;28;20292;-63
2023/01/25 00:07:33;;;;;;;21.20;15.00;;;4.60;99.90;;;;;;5046359;28;20736;-63
2023/01/25 00:09:59;;;;;;;23.73;16.20;;;4.20;99.90;;;;;;5038690;28;20848;-63
2023/01/25 00:12:24;;;;;;;22.97;15.67;;;4.70;99.90;;;;;;5038607;28;20203;-63
2023/01/25 00:14:50;;;;;;;22.00;15.60;;;4.60;99.90;;;;;;5038806;28;20193;-63
2023/01/25 00:17:15;;;;;;;22.67;16.97;;;4.60;99.90;;;;;;5040230;28;20219;-62
2023/01/25 00:19:41;;;;;;;22.07;15.37;;;4.50;99.90;;;;;;5039686;28;20665;-62
2023/01/25 00:22:06;;;;;;;20.83;14.87;;;4.30;99.90;;;;;;5034497;28;20657;-63
2023/01/25 00:24:32;;;;;;;19.10;14.80;;;4.70;99.90;;;;;;5039732;28;20197;-63
2023/01/25 00:26:58;;;;;;;20.50;14.80;;;4.00;99.90;;;;;;5037315;28;20249;-62
2023/01/25 00:29:24;;;;;;;24.27;15.60;;;4.70;99.90;;;;;;5043591;28;20297;-62
2023/01/25 00:31:57;;;;;;;22.20;16.50;;;4.80;99.90;;;;;;5039833;28;20198;-62
2023/01/25 00:34:25;;;;;;;19.55;14.07;;;4.60;99.90;;;;;;5040884;28;20213;-63
2023/01/25 00:37:09;;;;;;;20.85;15.50;;;4.60;99.90;;;;;;5035926;28;20229;-62
2023/01/25 00:39:35;;;;;;;25.15;16.02;;;4.60;99.90;;;;;;5036794;28;20688;-63
2023/01/25 00:42:00;;;;;;;22.07;14.30;;;4.50;99.90;;;;;;5048128;28;20213;-62
2023/01/25 00:44:26;;;;;;;22.40;15.03;;;4.70;99.90;;;;;;5045094;28;20447;-63
2023/01/25 00:46:52;;;;;;;22.43;15.50;;;4.80;99.90;;;;;;5043863;28;20586;-63
2023/01/25 00:49:24;;;;;;;20.43;15.67;;;4.80;99.90;;;;;;5041786;28;20191;-63
2023/01/25 00:51:51;;;;;;;23.52;16.20;;;4.50;99.90;;;;;;5046628;28;20186;-63
2023/01/25 00:54:17;;;;;;;23.45;16.45;;;4.20;99.90;;;;;;5037925;28;20198;-63
2023/01/25 00:56:44;;;;;;;18.25;13.60;;;4.60;99.90;;;;;;5044950;28;20210;-63
2023/01/25 00:59:10;;;;;;;23.88;15.75;;;3.90;99.90;;;;;;5044431;28;20669;-63
2023/01/25 01:01:36;;;;;;;21.15;14.45;;;4.50;99.90;;;;;;5043338;28;20212;-63
2023/01/25 01:04:01;;;;;;;18.97;14.33;;;4.80;99.90;;;;;;5043832;28;20175;-63
2023/01/25 01:06:27;;;;;;;20.83;14.80;;;4.60;99.90;;;;;;5039091;28;20208;-63
2023/01/25 01:08:53;;;;;;;21.40;14.90;;;4.70;99.90;;;;;;5042656;28;20184;-63
2023/01/25 01:11:18;;;;;;;19.23;12.60;;;4.60;99.90;;;;;;5041958;28;20188;-63
2023/01/25 01:13:44;;;;;;;21.00;14.23;;;4.40;99.90;;;;;;5042401;28;20186;-62
2023/01/25 01:16:11;;;;;;;20.33;14.87;;;4.00;99.90;;;;;;5038425;28;20278;-62
2023/01/25 01:18:40;;;;;;;21.95;14.18;;;4.30;99.90;;;;;;5044300;28;20295;-62
2023/01/25 01:21:09;;;;;;;20.83;14.55;;;4.50;99.90;;;;;;5040739;28;20613;-62
2023/01/25 01:23:35;;;;;;;20.48;14.52;;;4.40;99.90;;;;;;5043264;28;20550;-62
2023/01/25 01:26:06;;;;;;;19.67;13.95;;;4.40;99.90;;;;;;5038575;28;20260;-62
2023/01/25 01:28:34;;;;;;;23.48;15.23;;;4.50;99.90;;;;;;5044720;28;20202;-62
2023/01/25 01:31:00;;;;;;;20.25;14.38;;;4.40;99.90;;;;;;5043214;28;20220;-63
2023/01/25 01:33:26;;;;;;;20.42;14.35;;;4.70;99.90;;;;;;5041678;28;20190;-62
2023/01/25 01:35:52;;;;;;;23.00;14.37;;;4.90;99.90;;;;;;5042290;28;20572;-62
2023/01/25 01:38:17;;;;;;;25.20;15.53;;;4.50;99.90;;;;;;5036980;28;20272;-62
2023/01/25 01:40:47;;;;;;;21.13;14.87;;;4.40;99.90;;;;;;5041256;28;20649;-63
2023/01/25 01:43:23;;;;;;;20.67;14.43;;;4.50;99.90;;;;;;5038042;28;20580;-63
2023/01/25 01:45:51;;;;;;;20.02;14.55;;;4.80;99.90;;;;;;5046592;28;20228;-63
2023/01/25 01:48:39;;;;;;;22.55;14.40;;;4.70;99.90;;;;;;5040420;28;21144;-62
2023/01/25 01:51:23;;;;;;;22.15;14.30;;;4.40;99.90;;;;;;5044311;28;20553;-63
2023/01/25 01:53:57;;;;;;;18.83;13.18;;;4.80;99.90;;;;;;5040943;28;20174;-62
2023/01/25 01:56:30;;;;;;;18.67;14.60;;;4.50;99.90;;;;;;5036069;28;20365;-62
2023/01/25 01:58:58;;;;;;;19.65;14.50;;;4.50;99.90;;;;;;5043879;28;20198;-63
2023/01/25 02:01:23;;;;;;;20.33;14.60;;;4.70;99.90;;;;;;5039931;28;20555;-63
2023/01/25 02:03:50;;;;;;;18.20;13.70;;;4.60;99.90;;;;;;5034874;28;20192;-62
2023/01/25 02:06:30;;;;;;;22.50;14.30;;;4.70;99.90;;;;;;5038206;28;20207;-62
2023/01/25 02:08:56;;;;;;;21.23;14.35;;;4.80;99.90;;;;;;5036854;28;20707;-63
2023/01/25 02:11:24;;;;;;;18.95;13.60;;;4.50;99.90;;;;;;5032804;28;20195;-63
2023/01/25 02:13:51;;;;;;;18.45;13.90;;;4.20;99.90;;;;;;5048296;28;20179;-63
2023/01/25 02:16:23;;;;;;;20.23;13.50;;;4.70;99.90;;;;;;5049458;28;20301;-63
2023/01/25 02:18:48;;;;;;;20.45;14.07;;;4.90;99.90;;;;;;5039398;28;20237;-62
2023/01/25 02:21:14;;;;;;;20.50;14.97;;;5.10;99.90;;;;;;5037432;28;20607;-62
2023/01/25 02:23:55;;;;;;;23.37;13.60;;;5.00;99.90;;;;;;5038999;28;20180;-63
2023/01/25 02:26:22;;;;;;;17.63;13.30;;;4.60;99.90;;;;;;5041238;28;20287;-62
2023/01/25 02:28:54;;;;;;;18.77;12.55;;;5.10;99.90;;;;;;5044281;28;20193;-62
2023/01/25 02:31:19;;;;;;;20.08;13.68;;;4.70;99.90;;;;;;5042000;28;20191;-62
2023/01/25 02:33:45;;;;;;;17.00;12.97;;;4.40;99.90;;;;;;5038484;28;20233;-63
2023/01/25 02:36:10;;;;;;;21.20;15.20;;;4.80;99.90;;;;;;5045158;28;20708;-62
2023/01/25 02:38:44;;;;;;;18.20;13.37;;;4.70;99.90;;;;;;5039661;28;20218;-63
2023/01/25 02:41:20;;;;;;;19.67;13.45;;;4.80;99.90;;;;;;5038176;28;20199;-62
2023/01/25 02:43:45;;;;;;;17.70;12.65;;;4.50;99.90;;;;;;5037172;28;20289;-63
2023/01/25 02:46:11;;;;;;;22.83;14.07;;;4.50;99.90;;;;;;5042199;28;20675;-62
2023/01/25 02:48:37;;;;;;;18.07;12.97;;;4.70;99.90;;;;;;5040356;28;20193;-62
2023/01/25 02:51:06;;;;;;;20.10;12.97;;;4.60;99.90;;;;;;5041661;28;20599;-63
2023/01/25 02:53:31;;;;;;;20.00;13.70;;;4.70;99.90;;;;;;5041182;28;21109;-62
2023/01/25 02:55:57;;;;;;;21.47;13.77;;;4.80;99.90;;;;;;5039184;28;20211;-63
2023/01/25 02:58:22;;;;;;;19.50;14.10;;;4.50;99.90;;;;;;5036572;28;20615;-62
2023/01/25 03:00:48;;;;;;;22.30;13.77;;;4.00;99.90;;;;;;5036815;28;20186;-62
2023/01/25 03:03:14;;;;;;;19.10;13.33;;;4.30;99.90;;;;;;5037279;28;20205;-63
2023/01/25 03:05:39;;;;;;;21.40;13.30;;;4.60;99.90;;;;;;5041460;28;20654;-63
2023/01/25 03:08:05;;;;;;;20.80;13.47;;;4.70;99.90;;;;;;5040688;28;20724;-62
2023/01/25 03:10:31;;;;;;;20.83;15.30;;;4.60;99.90;;;;;;5039384;28;20191;-62
2023/01/25 03:12:56;;;;;;;19.87;13.70;;;4.40;99.90;;;;;;5037972;28;20188;-63
2023/01/25 03:15:22;;;;;;;18.87;13.57;;;4.70;99.90;;;;;;5040335;28;20238;-63
2023/01/25 03:17:47;;;;;;;18.33;13.20;;;4.70;99.90;;;;;;5035935;28;20206;-63
2023/01/25 03:20:13;;;;;;;22.73;15.07;;;4.60;99.90;;;;;;5038635;28;20641;-63
2023/01/25 03:22:39;;;;;;;17.53;13.27;;;4.70;99.90;;;;;;5042739;28;20221;-63
2023/01/25 03:25:05;;;;;;;21.10;13.97;;;4.70;99.90;;;;;;5037714;28;20554;-63
2023/01/25 03:27:31;;;;;;;21.40;15.00;;;4.40;99.90;;;;;;5041203;28;20232;-63
2023/01/25 03:29:56;;;;;;;19.77;13.73;;;4.30;99.90;;;;;;5039832;28;20540;-63
2023/01/25 03:32:22;;;;;;;20.73;13.23;;;4.60;99.90;;;;;;5037711;28;20191;-62
2023/01/25 03:34:47;;;;;;;20.83;13.20;;;4.50;99.90;;;;;;5038697;28;20194;-63
2023/01/25 03:37:13;;;;;;;17.73;12.10;;;4.40;99.90;;;;;;5039735;28;20319;-63
2023/01/25 03:39:39;;;;;;;17.77;12.83;;;4.40;99.90;;;;;;5038395;28;20269;-63
2023/01/25 03:42:04;;;;;;;19.97;13.37;;;4.50;99.90;;;;;;5042018;28;20209;-62
2023/01/25 03:44:30;;;;;;;17.50;12.60;;;4.40;99.90;;;;;;5045899;28;20232;-63
2023/01/25 03:46:56;;;;;;;21.67;13.93;;;4.30;99.90;;;;;;5037790;28;20565;-62
2023/01/25 03:49:21;;;;;;;19.87;13.10;;;4.10;99.90;;;;;;5035934;28;20727;-63
2023/01/25 03:51:47;;;;;;;18.80;15.40;;;4.30;99.90;;;;;;5041243;28;20219;-63
2023/01/25 03:54:12;;;;;;;18.40;13.13;;;4.50;99.90;;;;;;5040027;28;20190;-63
2023/01/25 03:56:38;;;;;;;16.50;11.90;;;4.60;99.90;;;;;;5038506;28;20615;-63
2023/01/25 03:59:04;;;;;;;16.77;11.80;;;4.50;99.90;;;;;;5040021;28;20194;-63
2023/01/25 04:01:30;;;;;;;15.82;11.30;;;4.70;99.90;;;;;;5041901;28;20194;-63
2023/01/25 04:03:55;;;;;;;15.70;12.10;;;4.60;99.90;;;;;;5038792;28;20192;-63
2023/01/25 04:06:21;;;;;;;17.73;12.83;;;4.40;99.90;;;;;;5035379;28;20217;-62
2023/01/25 04:08:47;;;;;;;17.70;12.80;;;4.50;99.90;;;;;;5034697;28;20182;-62
2023/01/25 04:11:12;;;;;;;17.37;11.03;;;4.60;99.90;;;;;;5040833;28;20200;-62
2023/01/25 04:13:38;;;;;;;13.30;11.20;;;4.60;99.90;;;;;;5040809;28;20245;-62
2023/01/25 04:16:10;;;;;;;16.58;12.35;;;4.50;99.90;;;;;;5044757;28;20491;-62
2023/01/25 04:18:36;;;;;;;19.15;11.68;;;4.50;99.90;;;;;;5039590;28;20217;-63
2023/01/25 04:21:02;;;;;;;17.50;11.60;;;4.60;99.90;;;;;;5046363;28;20187;-63
2023/01/25 04:23:27;;;;;;;18.10;11.43;;;4.30;99.90;;;;;;5046723;28;20425;-63
2023/01/25 04:25:58;;;;;;;19.10;12.87;;;4.70;99.90;;;;;;5044224;28;20667;-63
2023/01/25 04:28:24;;;;;;;17.30;11.75;;;4.80;99.90;;;;;;5049439;28;20552;-63
2023/01/25 04:30:50;;;;;;;17.35;12.45;;;4.40;99.90;;;;;;5051919;28;20292;-63
2023/01/25 04:33:16;;;;;;;14.93;11.20;;;4.40;99.90;;;;;;5043726;28;20570;-63
2023/01/25 04:35:43;;;;;;;15.30;11.23;;;4.60;99.90;;;;;;5047442;28;20497;-60
2023/01/25 04:38:09;;;;;;;15.02;11.80;;;4.70;99.90;;;;;;5050130;28;20322;-63
2023/01/25 04:40:35;;;;;;;16.48;10.85;;;4.60;99.90;;;;;;5037944;28;20187;-63
2023/01/25 04:43:01;;;;;;;18.33;12.53;;;4.70;99.90;;;;;;5036817;28;20252;-63
2023/01/25 04:45:27;;;;;;;16.80;11.77;;;4.50;99.90;;;;;;5038199;28;20468;-63
2023/01/25 04:47:57;;;;;;;15.73;11.17;;;4.70;99.90;;;;;;5045946;28;20949;-63
2023/01/25 04:50:23;;;;;;;15.07;11.32;;;5.10;99.90;;;;;;5041273;28;20238;-63
2023/01/25 04:52:49;;;;;;;13.75;11.48;;;4.70;99.90;;;;;;5040199;28;20279;-63
2023/01/25 04:55:14;;;;;;;14.97;10.70;;;4.50;99.90;;;;;;5037219;28;20285;-63
2023/01/25 04:57:40;;;;;;;14.70;11.33;;;4.70;99.90;;;;;;5044048;28;20463;-63
2023/01/25 05:00:07;;;;;;;13.30;9.77;;;4.10;99.90;;;;;;5041090;28;20541;-63
2023/01/25 05:02:33;;;;;;;12.80;9.55;;;4.70;99.90;;;;;;5042012;28;20187;-63
2023/01/25 05:04:58;;;;;;;12.93;9.40;;;4.60;99.90;;;;;;5044211;28;20546;-63
2023/01/25 05:07:24;;;;;;;13.60;9.63;;;4.40;99.90;;;;;;5041287;28;21162;-61
2023/01/25 05:09:49;;;;;;;12.93;9.50;;;4.60;99.90;;;;;;5044570;28;20270;-61
2023/01/25 05:12:15;;;;;;;15.33;9.87;;;4.10;99.90;;;;;;5044909;28;20199;-61
2023/01/25 05:14:41;;;;;;;13.27;9.03;;;4.70;99.90;;;;;;5042621;28;20568;-61
2023/01/25 05:17:07;;;;;;;14.13;10.80;;;4.50;99.90;;;;;;5039142;28;20218;-61
2023/01/25 05:19:33;;;;;;;14.95;10.35;;;4.50;99.90;;;;;;5041031;28;20183;-62
2023/01/25 05:22:00;;;;;;;12.95;9.65;;;4.50;99.90;;;;;;5038098;28;20184;-62
2023/01/25 05:24:30;;;;;;;14.38;10.43;;;4.60;99.90;;;;;;5041162;28;20189;-62
2023/01/25 05:27:00;;;;;;;14.27;9.70;;;4.10;99.90;;;;;;5040594;28;20207;-62
2023/01/25 05:29:27;;;;;;;12.18;9.30;;;4.60;99.90;;;;;;5038043;28;20196;-62
2023/01/25 05:31:53;;;;;;;12.52;9.27;;;3.90;99.90;;;;;;5048597;28;20189;-62
2023/01/25 05:34:18;;;;;;;15.23;10.43;;;4.50;99.90;;;;;;5044727;28;20191;-62
2023/01/25 05:36:44;;;;;;;15.67;9.90;;;4.00;99.90;;;;;;5044694;28;20256;-62
2023/01/25 05:39:10;;;;;;;12.57;9.47;;;4.50;99.90;;;;;;5036139;28;20188;-62
2023/01/25 05:41:35;;;;;;;12.27;9.67;;;4.40;99.90;;;;;;5041811;28;20264;-61
2023/01/25 05:44:01;;;;;;;12.93;9.77;;;4.40;99.90;;;;;;5046274;28;20919;-61
2023/01/25 05:46:27;;;;;;;12.60;9.53;;;4.70;99.90;;;;;;5041825;28;20242;-62
2023/01/25 05:48:53;;;;;;;12.95;9.57;;;4.30;99.90;;;;;;5036258;28;20187;-62
2023/01/25 05:51:19;;;;;;;12.90;9.30;;;4.70;99.90;;;;;;5040152;28;20281;-62
2023/01/25 05:53:44;;;;;;;12.27;9.23;;;3.80;99.90;;;;;;5043925;28;20478;-62
2023/01/25 05:56:10;;;;;;;14.17;10.00;;;4.60;99.90;;;;;;5037697;28;20563;-62
2023/01/25 05:58:36;;;;;;;13.33;9.30;;;4.20;99.90;;;;;;5042684;28;20747;-62
2023/01/25 06:01:04;;;;;;;13.63;9.10;;;4.00;99.90;;;;;;5044702;28;20687;-62
2023/01/25 06:03:30;;;;;;;14.02;9.20;;;4.40;99.90;;;;;;5047363;28;20186;-62
2023/01/25 06:05:57;;;;;;;12.90;9.80;;;4.50;99.90;;;;;;5034843;28;20210;-62
2023/01/25 06:08:23;;;;;;;11.27;9.60;;;4.30;99.90;;;;;;5040636;28;20289;-62
2023/01/25 06:10:49;;;;;;;12.97;9.80;;;4.10;99.90;;;;;;5043758;28;20584;-62
2023/01/25 06:13:15;;;;;;;13.77;9.00;;;4.40;99.90;;;;;;5047448;28;20438;-62
2023/01/25 06:15:41;;;;;;;12.20;8.75;;;4.40;99.90;;;;;;5044487;28;20203;-62
2023/01/25 06:18:06;;;;;;;13.83;9.73;;;4.40;99.90;;;;;;5041706;28;20217;-62
2023/01/25 06:20:33;;;;;;;12.00;8.57;;;4.30;99.90;;;;;;5045489;28;20610;-62
2023/01/25 06:22:58;;;;;;;12.65;9.07;;;4.40;99.90;;;;;;5040499;28;20190;-62
2023/01/25 06:25:24;;;;;;;11.77;8.50;;;4.60;99.90;;;;;;5040946;28;20582;-62
2023/01/25 06:27:50;;;;;;;15.70;10.07;;;4.60;99.90;;;;;;5047421;28;20225;-62
2023/01/25 06:30:16;;;;;;;13.57;9.13;;;4.50;99.90;;;;;;5045535;28;20187;-62
2023/01/25 06:32:41;;;;;;;11.57;8.93;;;4.40;99.90;;;;;;5034865;28;20546;-63
2023/01/25 06:35:07;;;;;;;11.40;8.67;;;5.00;99.90;;;;;;5036882;28;20469;-63
2023/01/25 06:37:33;;;;;;;12.15;9.55;;;4.80;99.90;;;;;;5030628;28;20304;-65
2023/01/25 06:39:58;;;;;;;13.40;9.30;;;4.70;99.90;;;;;;5037743;28;20185;-64
2023/01/25 06:42:24;;;;;;;12.50;9.10;;;4.90;99.90;;;;;;5038636;28;20190;-65
2023/01/25 06:44:50;;;;;;;12.70;9.73;;;4.70;99.90;;;;;;5039218;28;20184;-65
2023/01/25 06:47:15;;;;;;;14.50;10.23;;;4.60;99.90;;;;;;5044928;28;20721;-66
2023/01/25 06:49:41;;;;;;;12.43;9.30;;;4.90;99.90;;;;;;5034037;28;20190;-59
2023/01/25 06:52:06;;;;;;;13.77;9.57;;;4.10;99.90;;;;;;5041853;28;20206;-59
2023/01/25 06:54:33;;;;;;;15.57;10.60;;;4.70;99.90;;;;;;5043694;28;20239;-59
2023/01/25 06:56:58;;;;;;;13.80;9.20;;;4.90;99.90;;;;;;5040634;28;20211;-61
2023/01/25 06:59:24;;;;;;;14.40;9.67;;;4.70;99.90;;;;;;5043753;28;20680;-61
2023/01/25 07:01:49;;;;;;;12.83;9.00;;;4.50;99.90;;;;;;5039540;28;20709;-61
2023/01/25 07:04:15;;;;;;;14.13;10.07;;;4.50;99.90;;;;;;5041016;28;20237;-61
2023/01/25 07:06:40;;;;;;;14.33;9.67;;;4.80;99.90;;;;;;5047512;28;20199;-60
2023/01/25 07:09:09;;;;;;;14.70;10.50;;;4.80;99.90;;;;;;5040002;28;20190;-61
2023/01/25 07:11:35;;;;;;;12.73;10.27;;;4.50;99.90;;;;;;5042296;28;20188;-61
2023/01/25 07:14:02;;;;;;;12.10;8.73;;;4.90;99.90;;;;;;5042789;28;20277;-61
2023/01/25 07:16:28;;;;;;;12.80;9.80;;;4.00;99.90;;;;;;5041131;28;20626;-64
2023/01/25 07:18:54;;;;;;;15.57;11.70;;;4.70;99.90;;;;;;5031190;28;20297;-65
2023/01/25 07:21:21;;;;;;;13.70;10.55;;;4.60;99.90;;;;;;5040553;28;20429;-66
2023/01/25 07:23:51;;;;;;;12.18;9.35;;;4.60;99.90;;;;;;5041064;28;20185;-61
2023/01/25 07:26:19;;;;;;;13.35;8.90;;;4.70;99.90;;;;;;5038027;28;20211;-60
2023/01/25 07:28:46;;;;;;;12.80;8.73;;;4.60;99.90;;;;;;5044813;28;20264;-60
2023/01/25 07:31:11;;;;;;;12.20;9.25;;;4.50;99.90;;;;;;5046539;28;20189;-60
2023/01/25 07:33:37;;;;;;;14.60;10.00;;;4.30;99.90;;;;;;5042659;28;20205;-60
2023/01/25 07:36:05;;;;;;;15.53;10.53;;;4.70;99.90;;;;;;5044849;28;20461;-61
2023/01/25 07:38:31;;;;;;;14.38;9.43;;;4.70;99.90;;;;;;5044840;28;20238;-60
2023/01/25 07:40:56;;;;;;;12.33;8.73;;;4.80;99.90;;;;;;5041953;28;20184;-61
2023/01/25 07:43:22;;;;;;;11.53;9.40;;;4.60;99.90;;;;;;5047131;28;20600;-62
2023/01/25 07:45:48;;;;;;;12.67;8.63;;;4.50;99.90;;;;;;5044997;28;20209;-62
2023/01/25 07:48:15;;;;;;;12.77;9.23;;;4.60;99.90;;;;;;5045416;28;20508;-67
2023/01/25 07:50:41;;;;;;;14.93;11.25;;;4.90;99.90;;;;;;5048770;28;20591;-68
2023/01/25 07:53:07;;;;;;;12.40;9.00;;;4.70;99.90;;;;;;5049660;28;20738;-66
2023/01/25 07:55:33;;;;;;;13.10;9.45;;;4.10;99.90;;;;;;5049764;28;20830;-65
2023/01/25 07:57:59;;;;;;;13.88;9.70;;;5.00;99.90;;;;;;5051871;28;20345;-65
2023/01/25 08:00:25;;;;;;;12.48;8.88;;;4.80;99.90;;;;;;5051925;28;20191;-62
2023/01/25 08:02:51;;;;;;;11.63;8.75;;;5.00;99.90;;;;;;5052429;28;20280;-71
2023/01/25 08:05:18;;;;;;;12.25;9.23;;;4.90;99.90;;;;;;5046037;28;20214;-74
2023/01/25 08:07:44;;;;;;;10.85;8.48;;;5.10;99.90;;;;;;5043141;28;20187;-77
2023/01/25 08:10:10;;;;;;;14.35;9.88;;;4.80;99.90;;;;;;5051428;28;20233;-65
2023/01/25 08:12:36;;;;;;;11.33;9.47;;;5.00;99.90;;;;;;5039570;28;20190;-65
2023/01/25 08:15:03;;;;;;;11.27;8.93;;;4.70;99.90;;;;;;5048459;28;20244;-63
2023/01/25 08:17:31;;;;;;;15.07;10.90;;;4.90;99.90;;;;;;5048225;28;20680;-69
2023/01/25 08:19:58;;;;;;;15.32;9.95;;;4.60;99.90;;;;;;5038381;28;20240;-61
2023/01/25 08:22:24;;;;;;;11.77;9.00;;;4.70;99.90;;;;;;5044246;28;20193;-60
2023/01/25 08:24:49;;;;;;;14.07;9.87;;;4.50;99.90;;;;;;5046110;28;20177;-65
2023/01/25 08:27:15;;;;;;;12.33;8.67;;;4.50;99.90;;;;;;5038090;28;20449;-65
2023/01/25 08:29:41;;;;;;;11.30;9.43;;;4.60;99.90;;;;;;5046873;28;20248;-67
2023/01/25 08:32:06;;;;;;;13.13;10.10;;;4.60;99.90;;;;;;5044145;28;20531;-64
2023/01/25 08:34:33;;;;;;;11.40;9.30;;;4.60;99.90;;;;;;5048201;28;20187;-64
2023/01/25 08:36:59;;;;;;;13.35;9.85;;;4.70;99.90;;;;;;5049090;28;20837;-65
2023/01/25 08:39:25;;;;;;;12.80;8.87;;;4.20;99.90;;;;;;5049404;28;20240;-65
2023/01/25 08:41:50;;;;;;;13.85;9.48;;;4.80;99.90;;;;;;5044311;28;20184;-65
2023/01/25 08:44:21;;;;;;;12.57;8.67;;;4.80;99.90;;;;;;5046488;28;20195;-63
2023/01/25 08:46:46;;;;;;;13.88;10.55;;;4.80;99.90;;;;;;5042288;28;20225;-58
2023/01/25 08:49:12;;;;;;;12.87;9.97;;;4.90;99.90;;;;;;5045293;28;20184;-54
2023/01/25 08:51:38;;;;;;;12.87;9.53;;;4.90;99.90;;;;;;5042806;28;20449;-66
2023/01/25 08:54:06;;;;;;;13.18;10.10;;;5.10;99.90;;;;;;5044881;28;20189;-61
2023/01/25 08:56:31;;;;;;;11.15;8.57;;;4.90;99.90;;;;;;5042922;28;20297;-63
2023/01/25 08:58:57;;;;;;;12.00;9.40;;;4.80;99.90;;;;;;5045541;28;20310;-64
2023/01/25 09:01:23;;;;;;;14.63;9.60;;;4.90;99.90;;;;;;5046640;28;20187;-64
2023/01/25 09:03:49;;;;;;;11.80;9.20;;;4.70;99.90;;;;;;5035118;28;20184;-61
2023/01/25 09:06:16;;;;;;;12.48;9.75;;;4.70;99.90;;;;;;5038385;28;20522;-59
2023/01/25 09:08:42;;;;;;;12.85;9.60;;;5.00;99.90;;;;;;5039308;28;20200;-63
2023/01/25 09:11:16;;;;;;;13.82;10.50;;;4.70;99.90;;;;;;5047505;28;20196;-59
2023/01/25 09:13:42;;;;;;;13.80;10.32;;;4.70;99.90;;;;;;5046157;28;20191;-64
2023/01/25 09:16:14;;;;;;;14.55;10.07;;;4.90;99.90;;;;;;5046256;28;20214;-64
2023/01/25 09:18:42;;;;;;;14.73;10.43;;;4.70;99.90;;;;;;5045024;28;20210;-67
2023/01/25 09:21:13;;;;;;;13.88;9.73;;;5.10;99.90;;;;;;5044683;28;20219;-62
2023/01/25 09:23:39;;;;;;;12.15;9.70;;;5.00;99.90;;;;;;5044581;28;20250;-63
2023/01/25 09:26:05;;;;;;;13.43;9.37;;;4.70;99.90;;;;;;5041556;28;20577;-65
2023/01/25 09:28:32;;;;;;;15.48;9.98;;;4.80;99.90;;;;;;5044110;28;20271;-60
2023/01/25 09:31:01;;;;;;;13.98;9.88;;;4.50;99.90;;;;;;5042303;28;21317;-68
2023/01/25 09:33:37;;;;;;;12.43;8.90;;;4.80;99.90;;;;;;5047207;28;20193;-66
2023/01/25 09:36:05;;;;;;;12.10;9.18;;;4.70;99.90;;;;;;5039691;28;20204;-63
2023/01/25 09:38:30;;;;;;;14.68;9.90;;;4.50;99.90;;;;;;5044448;28;20449;-64
2023/01/25 09:41:02;;;;;;;10.40;9.23;;;5.00;99.90;;;;;;5043568;28;20191;-62
2023/01/25 09:43:33;;;;;;;12.50;9.73;;;4.60;99.90;;;;;;5045081;28;20456;-63
2023/01/25 09:46:06;;;;;;;11.80;9.10;;;4.70;99.90;;;;;;5039684;28;21470;-65
2023/01/25 09:48:41;;;;;;;15.38;11.68;;;4.80;99.90;;;;;;5046043;28;20625;-65
2023/01/25 09:52:01;;;;;;;17.08;9.70;;;4.50;99.90;;;;;;5044204;28;20194;-66
2023/01/25 09:54:29;;;;;;;12.48;9.45;;;4.80;99.90;;;;;;5012864;28;20269;-66
2023/01/25 09:56:55;;;;;;;14.48;9.90;;;5.00;99.90;;;;;;5048845;28;20267;-60
2023/01/25 09:59:25;;;;;;;11.10;8.85;;;4.90;99.90;;;;;;5047586;28;20535;-61
2023/01/25 10:01:57;;;;;;;11.48;8.18;;;4.70;99.90;;;;;;5052128;28;20663;-59
2023/01/25 10:04:40;;;;;;;13.70;11.02;;;4.80;99.90;;;;;;5037608;28;20192;-62
2023/01/25 10:07:38;;;;;;;11.73;9.90;;;4.80;99.90;;;;;;5047064;28;20195;-61
2023/01/25 10:10:10;;;;;;;11.50;9.50;;;4.80;99.90;;;;;;5046303;28;20559;-61
2023/01/25 10:12:37;;;;;;;11.82;9.32;;;4.70;99.90;;;;;;5043056;28;20183;-62
2023/01/25 10:15:21;;;;;;;13.80;9.18;;;4.50;99.90;;;;;;5046888;28;20189;-61
2023/01/25 10:17:58;;;;;;;12.13;9.43;;;4.60;99.90;;;;;;5049920;28;20685;-67
2023/01/25 10:20:53;;;;;;;11.60;9.27;;;4.80;99.90;;;;;;5044524;28;20197;-62
2023/01/25 10:23:45;;;;;;;12.23;9.80;;;4.50;99.90;;;;;;5039761;28;20466;-61
2023/01/25 10:26:14;;;;;;;14.23;9.55;;;4.80;99.90;;;;;;5039704;28;20322;-59
2023/01/25 10:29:08;;;;;;;17.48;11.50;;;4.50;99.90;;;;;;5047998;28;20614;-78
2023/01/25 10:31:37;;;;;;;13.20;10.45;;;5.10;99.90;;;;;;5041227;28;20548;-61
2023/01/25 10:34:20;;;;;;;13.40;10.40;;;4.70;99.90;;;;;;5046991;28;20233;-65
2023/01/25 10:36:49;;;;;;;13.13;10.05;;;5.00;99.90;;;;;;5042349;28;20589;-67
2023/01/25 10:39:16;;;;;;;12.13;9.38;;;4.50;99.90;;;;;;5040074;28;20201;-60
2023/01/25 10:41:49;;;;;;;15.20;11.55;;;5.10;99.90;;;;;;5038496;28;20186;-62
2023/01/25 10:44:21;;;;;;;13.20;9.60;;;4.90;99.90;;;;;;5047821;28;20266;-62
2023/01/25 10:47:03;;;;;;;14.50;11.15;;;4.20;99.90;;;;;;5040111;28;20236;-61
2023/01/25 10:49:49;;;;;;;12.48;8.93;;;5.20;99.90;;;;;;5042383;28;20207;-66
2023/01/25 10:52:25;;;;;;;12.60;9.38;;;4.80;99.90;;;;;;5041310;28;20277;-64
2023/01/25 10:55:13;;;;;;;15.48;10.77;;;5.10;99.90;;;;;;5033780;28;20598;-68
2023/01/25 10:57:43;;;;;;;12.10;9.95;;;4.80;99.90;;;;;;5044898;28;20212;-67
2023/01/25 11:00:39;;;;;;;12.10;9.52;;;5.00;99.90;;;;;;5038357;28;20189;-65
2023/01/25 11:03:18;;;;;;;15.10;11.35;;;5.30;99.90;;;;;;5036919;28;20208;-60
2023/01/25 11:05:55;;;;;;;13.82;10.48;;;5.00;99.90;;;;;;5037091;28;20223;-60
2023/01/25 11:08:28;;;;;;;12.45;9.95;;;5.10;99.90;;;;;;5039298;28;20574;-59
2023/01/25 11:10:54;;;;;;;15.05;10.05;;;5.10;99.90;;;;;;5044686;28;20191;-59
2023/01/25 11:13:33;;;;;;;13.87;10.50;;;5.10;99.90;;;;;;5039942;28;20196;-59
2023/01/25 11:15:58;;;;;;;16.42;10.50;;;5.30;99.90;;;;;;5046172;28;20206;-59
2023/01/25 11:18:33;;;;;;;12.10;9.60;;;5.10;99.90;;;;;;5047851;28;20225;-60
2023/01/25 11:21:17;;;;;;;12.60;10.15;;;5.00;99.90;;;;;;5040123;28;20674;-60
2023/01/25 11:23:43;;;;;;;13.10;10.32;;;4.70;99.90;;;;;;5038581;28;20180;-63
2023/01/25 11:26:17;;;;;;;14.82;11.70;;;5.20;99.90;;;;;;5043965;28;20208;-65
2023/01/25 11:28:44;;;;;;;16.17;11.05;;;5.50;99.90;;;;;;5046201;28;20265;-65
2023/01/25 11:31:12;;;;;;;15.20;9.82;;;4.80;99.90;;;;;;5043072;28;20183;-62
2023/01/25 11:33:39;;;;;;;15.75;11.38;;;5.10;99.90;;;;;;5043184;28;20224;-61
2023/01/25 11:36:08;;;;;;;14.38;11.18;;;5.00;99.90;;;;;;5044306;28;20206;-62
2023/01/25 11:38:34;;;;;;;13.13;10.50;;;5.00;99.90;;;;;;5047029;28;20207;-61
2023/01/25 11:41:37;;;;;;;14.90;11.35;;;4.50;99.90;;;;;;5042770;28;20191;-64
2023/01/25 11:44:32;;;;;;;12.65;9.88;;;5.10;99.90;;;;;;5043873;28;20187;-71
2023/01/25 11:47:22;;;;;;;15.40;11.88;;;5.20;99.90;;;;;;5041510;28;20230;-68
2023/01/25 11:50:11;;;;;;;16.58;12.00;;;5.30;99.90;;;;;;5039791;28;20183;-70
2023/01/25 11:53:28;;;;;;;14.98;10.70;;;5.20;99.90;;;;;;5045787;28;20176;-66
2023/01/25 11:56:33;;;;;;;15.50;12.20;;;5.10;99.90;;;;;;5033810;28;20228;-62
2023/01/25 11:59:35;;;;;;;15.63;12.05;;;4.90;99.90;;;;;;5041640;28;20223;-61
2023/01/25 12:02:26;;;;;;;16.98;12.32;;;4.80;99.90;;;;;;5042446;28;20317;-61
2023/01/25 12:05:10;;;;;;;18.65;13.35;;;4.80;99.90;;;;;;5042242;28;20191;-64
2023/01/25 12:07:48;;;;;;;18.92;10.95;;;4.80;99.90;;;;;;5044227;28;20270;-65
2023/01/25 12:10:42;;;;;;;17.58;12.13;;;5.00;99.90;;;;;;5044533;28;20259;-60
2023/01/25 12:13:22;;;;;;;18.73;11.15;;;5.00;99.90;;;;;;5045998;28;20304;-60
2023/01/25 12:16:06;;;;;;;15.05;11.80;;;4.70;99.90;;;;;;5044642;28;20236;-60
2023/01/25 12:18:51;;;;;;;16.13;12.10;;;4.80;99.90;;;;;;5043437;28;20219;-60
2023/01/25 12:21:38;;;;;;;16.75;11.60;;;5.10;99.90;;;;;;5047693;28;20271;-61
2023/01/25 12:24:36;;;;;;;14.15;10.95;;;5.00;99.90;;;;;;5044889;28;20192;-60
2023/01/25 12:27:25;;;;;;;18.50;12.70;;;4.90;99.90;;;;;;5041647;28;20211;-67
2023/01/25 12:30:01;;;;;;;16.17;12.05;;;4.50;99.90;;;;;;5040745;28;20184;-65
2023/01/25 12:32:40;;;;;;;15.80;11.02;;;4.20;99.90;;;;;;5047540;28;20589;-65
2023/01/25 12:35:29;;;;;;;18.48;13.80;;;4.80;99.90;;;;;;5037941;28;20230;-65
2023/01/25 12:38:01;;;;;;;17.13;12.18;;;4.10;99.90;;;;;;5047342;28;20210;-67
2023/01/25 12:40:50;;;;;;;18.05;12.85;;;4.40;99.90;;;;;;5046000;28;20189;-65
2023/01/25 12:43:25;;;;;;;17.95;13.02;;;4.80;99.90;;;;;;5046861;28;20614;-66
2023/01/25 12:45:53;;;;;;;17.73;12.88;;;4.90;99.90;;;;;;5049469;28;20661;-61
2023/01/25 12:48:24;;;;;;;15.35;11.85;;;5.10;99.90;;;;;;5046478;28;20212;-62
2023/01/25 12:50:54;;;;;;;17.13;13.05;;;5.10;99.90;;;;;;5045237;28;20188;-69
2023/01/25 12:53:23;;;;;;;17.65;13.38;;;4.90;99.90;;;;;;5042072;28;20192;-68